createdAt,value
2019-04-01T00:01:44.099Z,58.00
2019-04-01T00:04:12.672Z,58.10
2019-04-01T00:06:41.198Z,58.20
2019-04-01T00:09:09.769Z,58.30
2019-04-01T00:11:43.388Z,58.30
2019-04-01T00:14:11.925Z,58.40
2019-04-01T00:16:40.396Z,58.40
2019-04-01T00:19:08.953Z,58.50
2019-04-01T00:21:37.520Z,58.70
2019-04-01T00:24:06.136Z,58.80
2019-04-01T00:26:34.684Z,58.80
2019-04-01T00:29:03.195Z,58.80
2019-04-01T00:31:31.821Z,58.90
2019-04-01T00:34:00.327Z,59.00
2019-04-01T00:36:28.835Z,59.10
2019-04-01T00:38:57.372Z,59.30
2019-04-01T00:41:26.005Z,59.50
2019-04-01T00:43:56.887Z,59.40
2019-04-01T00:46:25.443Z,59.60
2019-04-01T00:48:54.075Z,59.80
2019-04-01T00:51:23.864Z,59.80
2019-04-01T00:53:52.510Z,60.00
2019-04-01T00:56:21.109Z,60.00
2019-04-01T00:58:49.620Z,60.20
2019-04-01T01:01:18.216Z,60.20
2019-04-01T01:03:46.789Z,60.40
2019-04-01T01:06:15.501Z,60.50
2019-04-01T01:08:44.998Z,60.70
2019-04-01T01:11:13.668Z,60.80
2019-04-01T01:13:42.210Z,60.90
2019-04-01T01:16:10.707Z,61.00
2019-04-01T01:18:39.258Z,61.10
2019-04-01T01:21:08.044Z,61.40
2019-04-01T01:23:38.063Z,61.30
2019-04-01T01:26:06.595Z,61.40
2019-04-01T01:28:35.248Z,61.60
2019-04-01T01:31:03.978Z,61.70
2019-04-01T01:33:32.435Z,61.70
2019-04-01T01:36:00.984Z,61.60
2019-04-01T01:38:29.447Z,61.70
2019-04-01T01:40:58.136Z,61.80
2019-04-01T01:43:26.679Z,61.90
2019-04-01T01:45:55.145Z,62.00
2019-04-01T01:48:23.599Z,62.20
2019-04-01T01:50:52.090Z,62.30
2019-04-01T01:53:20.620Z,62.40
2019-04-01T01:55:49.073Z,62.60
2019-04-01T01:58:17.576Z,62.60
2019-04-01T02:00:46.039Z,62.80
2019-04-01T02:03:14.500Z,62.90
2019-04-01T02:05:45.008Z,63.00
2019-04-01T02:08:13.483Z,63.10
2019-04-01T02:10:41.998Z,63.00
2019-04-01T02:13:10.573Z,63.10
2019-04-01T02:15:39.029Z,63.30
2019-04-01T02:18:07.474Z,63.40
2019-04-01T02:20:36.189Z,63.40
2019-04-01T02:23:04.772Z,63.70
2019-04-01T02:25:33.228Z,63.60
2019-04-01T02:28:01.725Z,63.80
2019-04-01T02:30:30.243Z,63.90
2019-04-01T02:32:58.696Z,64.00
2019-04-01T02:35:27.219Z,64.00
2019-04-01T02:37:55.697Z,64.10
2019-04-01T02:40:25.462Z,64.20
2019-04-01T02:42:55.226Z,64.30
2019-04-01T02:45:23.743Z,64.50
2019-04-01T02:47:52.218Z,64.60
2019-04-01T02:50:20.679Z,64.70
2019-04-01T02:52:49.136Z,64.70
2019-04-01T02:55:17.733Z,65.00
2019-04-01T02:57:46.205Z,65.50
2019-04-01T03:00:15.296Z,64.90
2019-04-01T03:02:43.788Z,65.10
2019-04-01T03:05:13.613Z,65.10
2019-04-01T03:07:42.154Z,65.00
2019-04-01T03:10:10.869Z,65.00
2019-04-01T03:12:39.328Z,65.00
2019-04-01T03:15:08.317Z,65.20
2019-04-01T03:17:36.955Z,65.10
2019-04-01T03:20:06.930Z,65.30
2019-04-01T03:22:35.449Z,65.40
2019-04-01T03:25:05.469Z,65.50
2019-04-01T03:27:33.980Z,65.70
2019-04-01T03:30:02.445Z,65.80
2019-04-01T03:32:31.060Z,65.80
2019-04-01T03:34:59.526Z,65.90
2019-04-01T03:37:28.078Z,66.10
2019-04-01T03:39:56.536Z,66.30
2019-04-01T03:42:25.161Z,66.60
2019-04-01T03:44:55.237Z,66.70
2019-04-01T03:47:23.988Z,67.00
2019-04-01T03:49:52.540Z,67.10
2019-04-01T03:52:21.156Z,67.10
2019-04-01T03:54:49.641Z,67.30
2019-04-01T03:57:18.224Z,67.20
2019-04-01T03:59:46.750Z,67.30
2019-04-01T04:02:15.191Z,67.30
2019-04-01T04:04:43.674Z,67.20
2019-04-01T04:07:12.129Z,67.20
2019-04-01T04:09:40.666Z,67.30
2019-04-01T04:12:09.352Z,67.20
2019-04-01T04:14:37.799Z,67.30
2019-04-01T04:17:06.430Z,67.20
2019-04-01T04:19:34.982Z,67.20
2019-04-01T04:22:03.529Z,67.20
2019-04-01T04:24:32.739Z,67.20
2019-04-01T04:27:01.303Z,67.10
2019-04-01T04:29:29.827Z,67.20
2019-04-01T04:31:58.297Z,67.20
2019-04-01T04:34:26.974Z,67.30
2019-04-01T04:36:55.487Z,67.50
2019-04-01T04:39:23.946Z,67.60
2019-04-01T04:41:52.533Z,67.60
2019-04-01T04:44:20.995Z,67.80
2019-04-01T04:46:51.188Z,68.00
2019-04-01T04:49:19.667Z,67.80
2019-04-01T04:51:48.173Z,68.00
2019-04-01T04:54:18.226Z,68.00
2019-04-01T04:56:46.704Z,68.10
2019-04-01T04:59:15.149Z,68.10
2019-04-01T05:01:43.609Z,68.00
2019-04-01T05:04:12.156Z,68.00
2019-04-01T05:06:40.612Z,68.00
2019-04-01T05:09:09.056Z,68.00
2019-04-01T05:11:37.561Z,68.10
2019-04-01T05:14:05.999Z,68.00
2019-04-01T05:16:34.469Z,68.10
2019-04-01T05:19:03.047Z,68.10
2019-04-01T05:21:33.408Z,68.00
2019-04-01T05:24:02.496Z,68.10
2019-04-01T05:26:33.526Z,68.10
2019-04-01T05:29:04.317Z,68.30
2019-04-01T05:31:35.678Z,68.40
2019-04-01T05:34:05.059Z,68.50
2019-04-01T05:36:33.920Z,68.50
2019-04-01T05:39:02.456Z,68.50
2019-04-01T05:41:32.101Z,68.60
2019-04-01T05:44:02.391Z,68.80
2019-04-01T05:46:31.478Z,68.70
2019-04-01T05:49:00.031Z,68.80
2019-04-01T05:51:28.971Z,68.80
2019-04-01T05:53:57.559Z,68.70
2019-04-01T05:56:26.176Z,68.70
2019-04-01T05:58:54.700Z,68.80
2019-04-01T06:01:25.036Z,68.70
2019-04-01T06:03:53.521Z,68.80
2019-04-01T06:06:21.984Z,68.60
2019-04-01T06:08:50.468Z,68.60
2019-04-01T06:11:19.132Z,68.70
2019-04-01T06:13:47.672Z,68.50
2019-04-01T06:16:16.378Z,68.60
2019-04-01T06:18:44.924Z,68.50
2019-04-01T06:21:14.524Z,69.20
2019-04-01T06:23:43.375Z,68.20
2019-04-01T06:26:11.991Z,68.30
2019-04-01T06:28:40.598Z,68.10
2019-04-01T06:31:09.519Z,68.00
2019-04-01T06:33:39.744Z,67.90
2019-04-01T06:36:08.193Z,67.80
2019-04-01T06:38:36.828Z,67.70
2019-04-01T06:41:10.607Z,67.70
2019-04-01T06:43:39.156Z,67.60
2019-04-01T06:46:09.492Z,67.50
2019-04-01T06:48:39.148Z,67.40
2019-04-01T06:51:07.862Z,67.40
2019-04-01T06:53:36.408Z,67.50
2019-04-01T06:56:05.125Z,67.30
2019-04-01T06:58:33.581Z,67.30
2019-04-01T07:01:02.214Z,67.30
2019-04-01T07:03:35.212Z,67.20
2019-04-01T07:06:04.762Z,67.10
2019-04-01T07:08:33.483Z,66.90
2019-04-01T07:11:02.558Z,66.70
2019-04-01T07:13:31.342Z,66.50
2019-04-01T07:16:14.319Z,66.10
2019-04-01T07:18:30.199Z,66.00
2019-04-01T07:20:59.205Z,65.70
2019-04-01T07:23:29.294Z,65.60
2019-04-01T07:25:57.981Z,65.30
2019-04-01T07:28:26.600Z,65.20
2019-04-01T07:30:55.542Z,65.00
2019-04-01T07:33:26.198Z,64.60
2019-04-01T07:35:54.718Z,64.30
2019-04-01T07:38:27.005Z,64.00
2019-04-01T07:40:58.993Z,63.90
2019-04-01T07:43:27.551Z,63.70
2019-04-01T07:45:59.910Z,63.20
2019-04-01T07:48:26.346Z,63.10
2019-04-01T07:50:54.794Z,62.80
2019-04-01T07:53:23.812Z,63.40
2019-04-01T07:55:55.168Z,62.30
2019-04-01T07:58:23.764Z,62.30
2019-04-01T08:00:52.222Z,62.10
2019-04-01T08:03:20.761Z,61.70
2019-04-01T08:05:54.555Z,61.40
2019-04-01T08:08:23.002Z,61.10
2019-04-01T08:10:51.491Z,60.80
2019-04-01T08:13:20.013Z,60.60
2019-04-01T08:15:49.129Z,60.40
2019-04-01T08:18:19.231Z,60.40
2019-04-01T08:20:47.821Z,59.90
2019-04-01T08:23:21.281Z,59.70
2019-04-01T08:25:51.156Z,59.50
2019-04-01T08:28:23.646Z,59.50
2019-04-01T08:30:51.329Z,59.40
2019-04-01T08:33:19.872Z,59.20
2019-04-01T08:35:48.384Z,59.00
2019-04-01T08:38:17.514Z,58.80
2019-04-01T08:40:47.454Z,58.70
2019-04-01T08:43:15.910Z,58.40
2019-04-01T08:45:46.497Z,58.20
2019-04-01T08:48:15.021Z,58.00
2019-04-01T08:50:47.223Z,57.80
2019-04-01T08:53:16.727Z,57.90
2019-04-01T08:55:46.930Z,57.70
2019-04-01T08:58:15.367Z,57.60
2019-04-01T09:00:44.072Z,57.50
2019-04-01T09:03:12.563Z,57.30
2019-04-01T09:05:41.041Z,57.00
2019-04-01T09:08:09.638Z,56.70
2019-04-01T09:10:40.571Z,56.40
2019-04-01T09:13:09.682Z,55.80
2019-04-01T09:15:38.675Z,55.80
2019-04-01T09:18:07.124Z,55.60
2019-04-01T09:20:35.943Z,55.40
2019-04-01T09:23:04.753Z,55.20
2019-04-01T09:25:33.276Z,54.60
2019-04-01T09:28:01.753Z,54.30
2019-04-01T09:30:30.427Z,54.00
2019-04-01T09:33:00.419Z,53.90
2019-04-01T09:35:29.008Z,53.60
2019-04-01T09:38:04.041Z,53.30
2019-04-01T09:40:32.584Z,53.20
2019-04-01T09:43:01.040Z,52.90
2019-04-01T09:45:29.512Z,52.80
2019-04-01T09:47:57.994Z,52.40
2019-04-01T09:50:26.582Z,52.00
2019-04-01T09:52:55.116Z,51.90
2019-04-01T09:55:24.134Z,51.60
2019-04-01T09:57:58.380Z,51.40
2019-04-01T10:00:27.111Z,51.10
2019-04-01T10:02:55.717Z,51.00
2019-04-01T10:05:25.403Z,50.50
2019-04-01T10:07:53.879Z,50.10
2019-04-01T10:10:22.593Z,49.70
2019-04-01T10:12:51.308Z,49.40
2019-04-01T10:15:20.167Z,49.10
2019-04-01T10:17:48.753Z,48.60
2019-04-01T10:20:17.676Z,48.50
2019-04-01T10:22:46.177Z,48.30
2019-04-01T10:25:14.955Z,47.80
2019-04-01T10:27:43.440Z,47.10
2019-04-01T10:30:12.930Z,46.60
2019-04-01T10:32:42.483Z,46.20
2019-04-01T10:35:11.501Z,45.40
2019-04-01T10:37:39.976Z,45.00
2019-04-01T10:40:10.302Z,44.70
2019-04-01T10:42:38.794Z,44.60
2019-04-01T10:45:10.069Z,44.40
2019-04-01T10:47:38.691Z,44.00
2019-04-01T10:50:11.493Z,43.40
2019-04-01T10:52:43.794Z,43.00
2019-04-01T10:55:11.843Z,42.30
2019-04-01T10:57:43.336Z,42.00
2019-04-01T11:00:11.682Z,41.20
2019-04-01T11:02:40.611Z,41.20
2019-04-01T11:05:09.329Z,40.80
2019-04-01T11:07:39.183Z,40.80
2019-04-01T11:10:11.467Z,40.70
2019-04-01T11:12:39.323Z,40.70
2019-04-01T11:15:08.724Z,40.10
2019-04-01T11:17:38.891Z,39.70
2019-04-01T11:20:08.637Z,39.20
2019-04-01T11:22:37.186Z,39.50
2019-04-01T11:25:10.271Z,39.20
2019-04-01T11:27:40.239Z,38.80
2019-04-01T11:30:13.542Z,38.70
2019-04-01T11:32:40.446Z,38.70
2019-04-01T11:35:09.361Z,38.60
2019-04-01T11:37:38.189Z,38.50
2019-04-01T11:40:11.425Z,38.50
2019-04-01T11:42:40.830Z,38.40
2019-04-01T11:45:11.273Z,38.30
2019-04-01T11:47:42.383Z,38.40
2019-04-01T11:50:13.092Z,38.20
2019-04-01T11:52:43.243Z,37.90
2019-04-01T11:55:13.189Z,37.40
2019-04-01T11:57:41.668Z,37.10
2019-04-01T12:00:16.810Z,36.60
2019-04-01T12:02:48.087Z,36.30
2019-04-01T12:05:17.904Z,36.20
2019-04-01T12:07:50.465Z,36.00
2019-04-01T12:10:20.578Z,36.30
2019-04-01T12:12:53.669Z,36.10
2019-04-01T12:15:22.155Z,35.90
2019-04-01T12:17:51.178Z,36.00
2019-04-01T12:20:19.752Z,35.80
2019-04-01T12:22:49.834Z,35.90
2019-04-01T12:25:18.382Z,35.70
2019-04-01T12:27:47.400Z,35.70
2019-04-01T12:30:20.733Z,36.00
2019-04-01T12:32:49.747Z,35.90
2019-04-01T12:35:19.297Z,35.50
2019-04-01T12:37:49.661Z,35.60
2019-04-01T12:40:18.342Z,35.40
2019-04-01T12:42:50.607Z,35.70
2019-04-01T12:45:17.400Z,34.90
2019-04-01T12:47:45.981Z,34.70
2019-04-01T12:50:14.798Z,34.80
2019-04-01T12:52:43.275Z,34.50
2019-04-01T12:55:15.225Z,34.40
2019-04-01T12:57:43.838Z,34.50
2019-04-01T13:00:15.036Z,34.20
2019-04-01T13:02:45.766Z,33.80
2019-04-01T13:05:14.672Z,34.10
2019-04-01T13:07:45.672Z,34.10
2019-04-01T13:10:14.310Z,33.60
2019-04-01T13:12:44.453Z,33.30
2019-04-01T13:15:13.302Z,33.20
2019-04-01T13:17:45.571Z,32.90
2019-04-01T13:20:16.340Z,32.60
2019-04-01T13:22:47.684Z,32.60
2019-04-01T13:25:16.206Z,32.60
2019-04-01T13:27:44.694Z,32.40
2019-04-01T13:30:13.395Z,32.40
2019-04-01T13:32:41.923Z,32.30
2019-04-01T13:35:10.469Z,32.30
2019-04-01T13:37:38.925Z,32.20
2019-04-01T13:40:08.993Z,31.80
2019-04-01T13:42:39.879Z,31.60
2019-04-01T13:45:11.333Z,31.80
2019-04-01T13:47:41.385Z,31.40
2019-04-01T13:50:16.384Z,30.90
2019-04-01T13:52:45.571Z,30.80
2019-04-01T13:55:15.482Z,30.60
2019-04-01T13:57:44.077Z,30.80
2019-04-01T14:00:12.976Z,30.60
2019-04-01T14:02:41.909Z,29.90
2019-04-01T14:05:12.550Z,30.00
2019-04-01T14:07:40.993Z,29.90
2019-04-01T14:10:10.507Z,29.90
2019-04-01T14:12:42.361Z,29.70
2019-04-01T14:15:11.148Z,29.70
2019-04-01T14:17:39.650Z,29.30
2019-04-01T14:20:10.631Z,29.20
2019-04-01T14:22:40.238Z,28.70
2019-04-01T14:25:10.076Z,28.00
2019-04-01T14:27:39.510Z,27.30
2019-04-01T14:30:08.900Z,26.80
2019-04-01T14:32:37.363Z,26.60
2019-04-01T14:35:07.315Z,26.10
2019-04-01T14:37:35.844Z,25.90
2019-04-01T14:40:07.745Z,25.80
2019-04-01T14:42:37.472Z,25.50
2019-04-01T14:45:07.992Z,25.40
2019-04-01T14:47:36.463Z,25.30
2019-04-01T14:50:07.810Z,24.30
2019-04-01T14:52:36.781Z,23.70
2019-04-01T14:55:05.987Z,23.20
2019-04-01T14:57:34.817Z,22.80
2019-04-01T15:00:05.094Z,22.40
2019-04-01T15:02:33.543Z,22.10
2019-04-01T15:05:04.711Z,21.60
2019-04-01T15:07:32.299Z,21.70
2019-04-01T15:10:01.342Z,21.60
2019-04-01T15:12:29.885Z,21.20
2019-04-01T15:14:58.380Z,21.20
2019-04-01T15:17:26.842Z,20.80
2019-04-01T15:19:55.973Z,20.30
2019-04-01T15:22:47.089Z,20.00
2019-04-01T15:25:18.312Z,19.60
2019-04-01T15:27:48.105Z,19.40
2019-04-01T15:30:19.814Z,19.10
2019-04-01T15:32:48.287Z,19.20
2019-04-01T15:35:16.755Z,19.00
2019-04-01T15:37:48.689Z,19.00
2019-04-01T15:40:18.273Z,18.70
2019-04-01T15:42:47.356Z,18.40
2019-04-01T15:45:15.787Z,18.30
2019-04-01T15:47:44.640Z,18.20
2019-04-01T15:50:27.930Z,18.00
2019-04-01T15:52:48.955Z,17.80
2019-04-01T15:55:17.515Z,17.90
2019-04-01T15:57:47.956Z,17.70
2019-04-01T16:00:19.663Z,17.80
2019-04-01T16:02:48.246Z,18.10
2019-04-01T16:05:16.744Z,18.00
2019-04-01T16:07:45.227Z,17.80
2019-04-01T16:10:14.174Z,17.40
2019-04-01T16:12:42.649Z,17.20
2019-04-01T16:15:11.353Z,17.20
2019-04-01T16:17:41.540Z,17.20
2019-04-01T16:20:10.907Z,17.20
2019-04-01T16:22:39.442Z,17.10
2019-04-01T16:25:08.546Z,17.10
2019-04-01T16:27:37.127Z,16.90
2019-04-01T16:30:08.325Z,16.70
2019-04-01T16:32:37.054Z,16.80
2019-04-01T16:35:07.571Z,16.70
2019-04-01T16:37:36.102Z,16.90
2019-04-01T16:40:06.770Z,17.00
2019-04-01T16:42:35.315Z,16.90
2019-04-01T16:45:07.093Z,16.90
2019-04-01T16:47:35.593Z,16.90
2019-04-01T16:50:07.482Z,17.00
2019-04-01T16:52:36.763Z,17.30
2019-04-01T16:55:10.318Z,17.50
2019-04-01T16:57:43.626Z,17.00
2019-04-01T17:00:14.823Z,17.20
2019-04-01T17:02:43.441Z,17.40
2019-04-01T17:05:12.244Z,17.50
2019-04-01T17:07:41.171Z,17.80
2019-04-01T17:10:12.555Z,17.90
2019-04-01T17:12:41.136Z,17.70
2019-04-01T17:15:10.493Z,17.90
2019-04-01T17:17:40.554Z,18.10
2019-04-01T17:20:09.156Z,18.30
2019-04-01T17:22:37.627Z,18.60
2019-04-01T17:25:07.697Z,18.90
2019-04-01T17:27:36.378Z,19.30
2019-04-01T17:30:08.013Z,19.70
2019-04-01T17:32:36.525Z,20.00
2019-04-01T17:35:06.127Z,20.40
2019-04-01T17:37:34.663Z,21.30
2019-04-01T17:40:03.855Z,21.90
2019-04-01T17:42:32.332Z,22.50
2019-04-01T17:45:13.764Z,23.00
2019-04-01T17:47:42.354Z,23.40
2019-04-01T17:50:11.751Z,23.90
2019-04-01T17:52:41.471Z,24.50
2019-04-01T17:55:10.265Z,25.20
2019-04-01T17:57:39.798Z,25.80
2019-04-01T18:00:16.882Z,26.50
2019-04-01T18:02:45.354Z,27.20
2019-04-01T18:05:17.384Z,27.80
2019-04-01T18:07:45.976Z,28.60
2019-04-01T18:10:15.199Z,29.30
2019-04-01T18:12:46.851Z,29.90
2019-04-01T18:15:20.713Z,30.60
2019-04-01T18:17:49.345Z,31.20
2019-04-01T18:20:20.206Z,31.60
2019-04-01T18:22:49.785Z,32.20
2019-04-01T18:25:19.108Z,32.60
2019-04-01T18:27:47.706Z,33.00
2019-04-01T18:30:16.930Z,33.10
2019-04-01T18:32:45.400Z,34.00
2019-04-01T18:35:14.136Z,34.50
2019-04-01T18:37:42.724Z,34.80
2019-04-01T18:40:11.865Z,35.10
2019-04-01T18:42:43.162Z,35.50
2019-04-01T18:45:13.235Z,35.80
2019-04-01T18:47:41.719Z,36.20
2019-04-01T18:50:10.409Z,36.50
2019-04-01T18:52:38.882Z,36.70
2019-04-01T18:55:08.076Z,37.20
2019-04-01T18:57:36.819Z,37.50
2019-04-01T19:00:10.025Z,37.90
2019-04-01T19:02:38.490Z,38.00
2019-04-01T19:05:07.169Z,38.30
2019-04-01T19:07:35.997Z,38.60
2019-04-01T19:10:07.107Z,38.80
2019-04-01T19:12:36.130Z,39.10
2019-04-01T19:15:09.938Z,39.20
2019-04-01T19:17:38.413Z,39.40
2019-04-01T19:20:11.186Z,39.40
2019-04-01T19:22:40.305Z,39.60
2019-04-01T19:25:08.870Z,39.80
2019-04-01T19:27:37.405Z,40.10
2019-04-01T19:30:11.662Z,40.50
2019-04-01T19:32:39.886Z,40.90
2019-04-01T19:35:09.505Z,41.00
2019-04-01T19:37:38.838Z,41.00
2019-04-01T19:40:10.580Z,41.40
2019-04-01T19:42:42.285Z,41.50
2019-04-01T19:45:12.795Z,41.60
2019-04-01T19:47:41.429Z,41.80
2019-04-01T19:50:10.734Z,42.10
2019-04-01T19:52:39.240Z,42.20
2019-04-01T19:55:08.536Z,42.80
2019-04-01T19:57:37.007Z,42.60
2019-04-01T20:00:07.353Z,42.80
2019-04-01T20:02:35.901Z,42.80
2019-04-01T20:05:08.963Z,43.00
2019-04-01T20:07:38.444Z,43.20
2019-04-01T20:10:09.880Z,43.20
2019-04-01T20:12:40.258Z,43.50
2019-04-01T20:15:12.751Z,43.60
2019-04-01T20:17:41.442Z,43.80
2019-04-01T20:20:10.459Z,44.00
2019-04-01T20:22:38.977Z,44.20
2019-04-01T20:25:08.748Z,44.30
2019-04-01T20:27:37.207Z,44.40
2019-04-01T20:30:09.379Z,44.70
2019-04-01T20:32:39.250Z,44.90
2019-04-01T20:35:22.824Z,45.00
2019-04-01T20:37:41.010Z,45.20
2019-04-01T20:40:10.224Z,45.30
2019-04-01T20:42:38.787Z,45.40
2019-04-01T20:45:13.486Z,45.60
2019-04-01T20:47:41.781Z,45.80
2019-04-01T20:50:13.391Z,46.10
2019-04-01T20:52:41.923Z,46.20
2019-04-01T20:55:13.447Z,46.40
2019-04-01T20:57:42.580Z,46.60
2019-04-01T21:00:11.310Z,46.70
2019-04-01T21:02:39.801Z,46.90
2019-04-01T21:05:09.542Z,47.00
2019-04-01T21:07:39.580Z,47.20
2019-04-01T21:10:08.683Z,47.30
2019-04-01T21:12:37.601Z,47.50
2019-04-01T21:15:08.021Z,47.60
2019-04-01T21:17:41.455Z,47.80
2019-04-01T21:20:09.686Z,47.80
2019-04-01T21:22:40.087Z,48.00
2019-04-01T21:25:09.565Z,48.20
2019-04-01T21:27:39.327Z,48.50
2019-04-01T21:30:11.768Z,48.90
2019-04-01T21:32:40.306Z,48.90
2019-04-01T21:35:09.622Z,49.40
2019-04-01T21:37:38.442Z,49.70
2019-04-01T21:40:08.900Z,50.10
2019-04-01T21:42:37.441Z,50.50
2019-04-01T21:45:07.456Z,51.00
2019-04-01T21:47:35.910Z,51.40
2019-04-01T21:50:06.966Z,51.90
2019-04-01T21:52:35.814Z,52.20
2019-04-01T21:55:08.042Z,52.70
2019-04-01T21:57:37.864Z,53.90
2019-04-01T22:00:11.600Z,53.40
2019-04-01T22:02:40.384Z,53.70
2019-04-01T22:05:10.094Z,54.00
2019-04-01T22:07:39.242Z,54.30
2019-04-01T22:10:07.787Z,54.50
2019-04-01T22:12:36.372Z,54.70
2019-04-01T22:15:05.903Z,54.80
2019-04-01T22:17:34.434Z,55.00
2019-04-01T22:20:03.835Z,55.20
2019-04-01T22:22:32.397Z,55.20
2019-04-01T22:25:01.268Z,55.50
2019-04-01T22:27:31.534Z,55.50
2019-04-01T22:30:00.071Z,55.70
2019-04-01T22:32:29.381Z,55.70
2019-04-01T22:34:57.827Z,55.70
2019-04-01T22:37:27.909Z,55.70
2019-04-01T22:39:56.806Z,55.60
2019-04-01T22:42:27.246Z,55.70
2019-04-01T22:44:56.227Z,55.60
2019-04-01T22:47:25.771Z,55.50
2019-04-01T22:49:54.269Z,55.40
2019-04-01T22:52:24.533Z,55.30
2019-04-01T22:54:53.043Z,55.30
2019-04-01T22:57:22.171Z,55.10
2019-04-01T22:59:53.158Z,55.10
2019-04-01T23:02:22.114Z,55.20
2019-04-01T23:04:52.869Z,55.00
2019-04-01T23:07:23.927Z,55.00
2019-04-01T23:09:52.414Z,55.00
2019-04-01T23:12:22.154Z,55.00
2019-04-01T23:14:50.927Z,55.00
2019-04-01T23:17:21.486Z,55.10
2019-04-01T23:19:50.267Z,55.10
2019-04-01T23:22:18.858Z,55.10
2019-04-01T23:24:47.345Z,55.10
2019-04-01T23:27:15.796Z,55.20
2019-04-01T23:29:44.295Z,55.20
2019-04-01T23:32:12.947Z,55.30
2019-04-01T23:34:42.358Z,55.30
2019-04-01T23:37:11.686Z,55.30
2019-04-01T23:39:41.507Z,56.00
2019-04-01T23:42:10.092Z,55.40
2019-04-01T23:44:38.535Z,55.40
2019-04-01T23:47:06.984Z,55.50
2019-04-01T23:49:35.452Z,55.60
2019-04-01T23:52:05.463Z,55.60
2019-04-01T23:54:36.218Z,55.60
2019-04-01T23:57:09.095Z,55.60
2019-04-01T23:59:41.841Z,55.70
